Time,TemperatureF,DewpointF,PressureIn,WindDirection,WindDirectionDegrees,WindSpeedMPH,WindSpeedGustMPH,Humidity,HourlyPrecipIn,Conditions,Clouds,dailyrainin,SoftwareType,DateUTC
2013-01-08 00:03:00,22.3,19.8,31.88,SW,225,3.5,3.5,90,0.00,CLR,,0.00,WeatherDisplay:10.37,2013-01-08 06:03:00,
2013-01-08 00:08:00,22.3,19.8,31.88,SW,225,3.5,3.5,90,0.00,CLR,,0.00,WeatherDisplay:10.37,2013-01-08 06:08:00,
2013-01-08 00:13:00,22.3,19.8,31.88,SW,225,3.5,3.5,90,0.00,CLR,,0.00,WeatherDisplay:10.37,2013-01-08 06:13:00,
2013-01-08 00:18:00,22.3,19.8,31.88,SW,225,3.5,3.5,90,0.00,CLR,,0.00,WeatherDisplay:10.37,2013-01-08 06:18:00,
2013-01-08 00:23:00,22.3,19.8,31.88,SW,225,3.5,3.5,90,0.00,CLR,,0.00,WeatherDisplay:10.37,2013-01-08 06:23:00,
2013-01-08 00:28:00,22.3,19.8,31.88,SW,225,3.5,3.5,90,0.00,CLR,,0.00,WeatherDisplay:10.37,2013-01-08 06:28:00,
2013-01-08 00:33:00,22.3,19.8,31.88,SW,225,3.5,3.5,90,0.00,CLR,,0.00,WeatherDisplay:10.37,2013-01-08 06:33:00,
2013-01-08 00:38:00,22.3,19.8,31.88,SW,225,3.5,3.5,90,0.00,CLR,,0.00,WeatherDisplay:10.37,2013-01-08 06:38:00,
2013-01-08 00:43:00,22.3,19.8,31.88,SW,225,3.5,3.5,90,0.00,CLR,,0.00,WeatherDisplay:10.37,2013-01-08 06:43:00,
2013-01-08 00:48:00,22.3,19.8,31.88,SW,225,3.5,3.5,90,0.00,CLR,,0.00,WeatherDisplay:10.37,2013-01-08 06:48:00,
2013-01-08 00:53:00,22.3,19.8,31.88,SW,225,3.5,3.5,90,0.00,CLR,,0.00,WeatherDisplay:10.37,2013-01-08 06:53:00,
2013-01-08 00:58:00,22.3,19.8,31.88,SW,225,3.5,3.5,90,0.00,CLR,,0.00,WeatherDisplay:10.37,2013-01-08 06:58:00,
2013-01-08 01:03:00,22.3,19.8,31.88,SW,225,3.5,3.5,90,0.00,CLR,,0.00,WeatherDisplay:10.37,2013-01-08 07:03:00,
2013-01-08 01:08:00,22.3,19.8,31.88,SW,225,3.5,3.5,90,0.00,CLR,,0.00,WeatherDisplay:10.37,2013-01-08 07:08:00,
2013-01-08 01:13:00,22.3,19.8,31.88,SW,225,3.5,3.5,90,0.00,CLR,,0.00,WeatherDisplay:10.37,2013-01-08 07:13:00,
2013-01-08 01:18:00,22.3,19.8,31.88,SW,225,3.5,3.5,90,0.00,CLR,,0.00,WeatherDisplay:10.37,2013-01-08 07:18:00,
2013-01-08 01:23:00,22.3,19.8,31.88,SW,225,3.5,3.5,90,0.00,CLR,,0.00,WeatherDisplay:10.37,2013-01-08 07:23:00,
2013-01-08 01:28:00,14.5,12.9,31.62,SE,135,1.1,0.0,93,0.00,CLR,,0.00,WeatherDisplay:10.37,2013-01-08 07:28:00,
2013-01-08 01:33:00,14.4,12.7,31.12,North,0,1.1,0.0,93,0.00,CLR,,0.00,WeatherDisplay:10.37,2013-01-08 07:33:00,
2013-01-08 01:38:00,14.2,12.5,30.63,NW,315,0.0,0.0,93,0.00,CLR,,0.00,WeatherDisplay:10.37,2013-01-08 07:38:00,
2013-01-08 01:43:00,14.0,12.3,30.40,NW,315,1.1,0.0,93,0.00,CLR,,0.00,WeatherDisplay:10.37,2013-01-08 07:43:00,
2013-01-08 01:48:00,14.0,12.6,30.38,South,180,1.1,1.1,94,0.00,CLR,,0.00,WeatherDisplay:10.37,2013-01-08 07:48:00,
2013-01-08 01:53:00,14.2,12.8,30.42,SW,225,1.1,0.0,94,0.00,CLR,,0.00,WeatherDisplay:10.37,2013-01-08 07:53:00,
2013-01-08 01:58:00,13.5,11.8,30.60,NW,315,1.1,0.0,93,0.00,CLR,,0.00,WeatherDisplay:10.37,2013-01-08 07:58:00,
2013-01-08 02:03:00,13.3,11.6,30.75,North,0,1.1,0.0,93,0.00,CLR,,0.00,WeatherDisplay:10.37,2013-01-08 08:03:00,
2013-01-08 02:08:00,13.8,12.4,30.96,South,180,2.3,2.3,94,0.00,CLR,,0.00,WeatherDisplay:10.37,2013-01-08 08:08:00,
2013-01-08 02:13:00,13.5,12.1,31.12,SW,225,2.3,0.0,94,0.00,CLR,,0.00,WeatherDisplay:10.37,2013-01-08 08:13:00,
2013-01-08 02:18:00,12.6,10.9,31.36,NW,315,1.1,1.1,93,0.00,CLR,,0.00,WeatherDisplay:10.37,2013-01-08 08:18:00,
2013-01-08 02:23:00,12.0,10.4,31.55,NW,315,1.1,0.0,93,0.00,CLR,,0.00,WeatherDisplay:10.37,2013-01-08 08:23:00,
2013-01-08 02:28:00,11.7,10.0,31.78,NW,315,1.1,1.1,93,0.00,CLR,,0.00,WeatherDisplay:10.37,2013-01-08 08:28:00,
2013-01-08 02:33:00,11.5,9.8,31.75,NW,315,1.1,0.0,93,0.00,CLR,,0.00,WeatherDisplay:10.37,2013-01-08 08:33:00,
2013-01-08 02:38:00,11.3,9.7,31.42,NW,315,0.0,0.0,93,0.00,CLR,,0.00,WeatherDisplay:10.37,2013-01-08 08:38:00,
2013-01-08 02:43:00,11.5,9.8,30.91,NW,315,0.0,0.0,93,0.00,CLR,,0.00,WeatherDisplay:10.37,2013-01-08 08:43:00,
2013-01-08 02:48:00,11.8,10.2,30.24,NW,315,0.0,0.0,93,0.00,CLR,,0.00,WeatherDisplay:10.37,2013-01-08 08:48:00,
2013-01-08 02:53:00,12.0,10.4,29.91,NW,315,0.0,0.0,93,0.00,CLR,,0.00,WeatherDisplay:10.37,2013-01-08 08:53:00,
2013-01-08 02:58:00,11.8,10.2,29.61,NW,315,1.1,0.0,93,0.00,CLR,,0.00,WeatherDisplay:10.37,2013-01-08 08:58:00,
2013-01-08 03:03:00,11.7,9.8,29.59,SW,225,1.1,0.0,92,0.00,CLR,,0.00,WeatherDisplay:10.37,2013-01-08 09:03:00,
2013-01-08 03:08:00,11.7,9.8,29.73,South,180,1.1,1.1,92,0.00,CLR,,0.00,WeatherDisplay:10.37,2013-01-08 09:08:00,
2013-01-08 03:13:00,11.7,9.8,29.88,South,180,1.1,1.1,92,0.00,CLR,,0.00,WeatherDisplay:10.37,2013-01-08 09:13:00,
2013-01-08 03:18:00,11.5,9.6,30.06,NW,315,1.1,1.1,92,0.00,CLR,,0.00,WeatherDisplay:10.37,2013-01-08 09:18:00,
2013-01-08 03:23:00,11.3,9.4,30.27,SW,225,1.1,1.1,92,0.00,CLR,,0.00,WeatherDisplay:10.37,2013-01-08 09:23:00,
2013-01-08 03:28:00,12.4,10.7,30.50,West,270,2.3,2.3,93,0.00,CLR,,0.00,WeatherDisplay:10.37,2013-01-08 09:28:00,
2013-01-08 03:33:00,12.7,11.1,30.76,West,270,2.3,2.3,93,0.00,CLR,,0.00,WeatherDisplay:10.37,2013-01-08 09:33:00,
2013-01-08 03:38:00,12.7,10.9,31.02,SW,225,1.1,0.0,92,0.00,CLR,,0.00,WeatherDisplay:10.37,2013-01-08 09:38:00,
2013-01-08 03:43:00,12.0,10.1,31.19,West,270,1.1,0.0,92,0.00,CLR,,0.00,WeatherDisplay:10.37,2013-01-08 09:43:00,
2013-01-08 03:48:00,11.3,9.2,31.12,West,270,1.1,0.0,91,0.00,CLR,,0.00,WeatherDisplay:10.37,2013-01-08 09:48:00,
2013-01-08 03:53:00,10.6,8.5,30.83,NW,315,1.1,0.0,91,0.00,CLR,,0.00,WeatherDisplay:10.37,2013-01-08 09:53:00,
2013-01-08 03:58:00,10.4,8.5,30.26,NW,315,0.0,0.0,92,0.00,CLR,,0.00,WeatherDisplay:10.37,2013-01-08 09:58:00,
2013-01-08 04:03:00,10.6,8.7,29.74,NW,315,0.0,0.0,92,0.00,CLR,,0.00,WeatherDisplay:10.37,2013-01-08 10:03:00,
2013-01-08 04:08:00,10.4,8.3,29.45,North,0,0.0,0.0,91,0.00,CLR,,0.00,WeatherDisplay:10.37,2013-01-08 10:08:00,
2013-01-08 04:13:00,10.4,8.3,29.31,South,180,1.6,1.6,91,0.00,CLR,,0.00,WeatherDisplay:10.37,2013-01-08 10:13:00,
2013-01-08 04:18:00,10.2,8.1,29.44,South,180,1.1,0.0,91,0.00,CLR,,0.00,WeatherDisplay:10.37,2013-01-08 10:18:00,
2013-01-08 04:23:00,9.9,7.8,29.59,South,180,0.0,0.0,91,0.00,CLR,,0.00,WeatherDisplay:10.37,2013-01-08 10:23:00,
2013-01-08 04:28:00,9.7,7.6,29.73,NW,315,1.1,0.0,91,0.00,CLR,,0.00,WeatherDisplay:10.37,2013-01-08 10:28:00,
2013-01-08 04:33:00,9.1,7.0,29.95,SW,225,1.6,0.0,91,0.00,CLR,,0.00,WeatherDisplay:10.37,2013-01-08 10:33:00,
2013-01-08 04:38:00,9.3,7.2,30.16,South,180,1.1,0.0,91,0.00,CLR,,0.00,WeatherDisplay:10.37,2013-01-08 10:38:00,
2013-01-08 04:43:00,9.1,7.0,30.42,South,180,1.1,0.0,91,0.00,CLR,,0.00,WeatherDisplay:10.37,2013-01-08 10:43:00,
2013-01-08 04:48:00,9.5,7.6,30.69,SW,225,1.1,1.1,92,0.00,CLR,,0.00,WeatherDisplay:10.37,2013-01-08 10:48:00,
2013-01-08 04:54:00,10.2,8.6,30.82,SW,225,1.1,1.1,93,0.00,CLR,,0.00,WeatherDisplay:10.37,2013-01-08 10:54:00,
2013-01-08 04:59:00,9.9,8.0,30.60,NW,315,1.1,0.0,92,0.00,CLR,,0.00,WeatherDisplay:10.37,2013-01-08 10:59:00,
2013-01-08 05:04:00,9.7,7.8,30.39,NW,315,1.1,0.0,92,0.00,CLR,,0.00,WeatherDisplay:10.37,2013-01-08 11:04:00,
2013-01-08 05:09:00,9.0,7.1,29.78,SW,225,1.1,0.0,92,0.00,CLR,,0.00,WeatherDisplay:10.37,2013-01-08 11:09:00,
2013-01-08 05:14:00,8.8,6.9,29.47,North,0,0.0,0.0,92,0.00,CLR,,0.00,WeatherDisplay:10.37,2013-01-08 11:14:00,
2013-01-08 05:19:00,8.2,6.2,29.26,SW,225,1.1,0.0,91,0.00,CLR,,0.00,WeatherDisplay:10.37,2013-01-08 11:19:00,
2013-01-08 05:24:00,7.9,5.8,29.32,SW,225,0.0,0.0,91,0.00,CLR,,0.00,WeatherDisplay:10.37,2013-01-08 11:24:00,
2013-01-08 05:29:00,7.9,5.8,29.50,SW,225,1.1,1.1,91,0.00,CLR,,0.00,WeatherDisplay:10.37,2013-01-08 11:29:00,
2013-01-08 05:34:00,8.8,6.9,29.65,SW,225,0.0,0.0,92,0.00,CLR,,0.00,WeatherDisplay:10.37,2013-01-08 11:34:00,
2013-01-08 05:39:00,8.4,6.6,29.92,NW,315,1.1,0.0,92,0.00,CLR,,0.00,WeatherDisplay:10.37,2013-01-08 11:39:00,
2013-01-08 05:44:00,7.9,5.8,30.09,SW,225,1.1,0.0,91,0.00,CLR,,0.00,WeatherDisplay:10.37,2013-01-08 11:44:00,
2013-01-08 05:49:00,7.3,5.3,30.38,SW,225,0.0,0.0,91,0.00,CLR,,0.00,WeatherDisplay:10.37,2013-01-08 11:49:00,
2013-01-08 05:54:00,7.3,5.3,30.56,South,180,1.1,0.0,91,0.00,CLR,,0.00,WeatherDisplay:10.37,2013-01-08 11:54:00,
2013-01-08 05:59:00,6.8,4.7,30.42,South,180,0.0,0.0,91,0.00,CLR,,0.00,WeatherDisplay:10.37,2013-01-08 11:59:00,
2013-01-08 06:04:00,6.8,4.7,30.19,South,180,0.0,0.0,91,0.00,CLR,,0.00,WeatherDisplay:10.37,2013-01-08 12:04:00,
2013-01-08 06:09:00,6.1,3.8,29.67,North,0,1.1,1.1,90,0.00,CLR,,0.00,WeatherDisplay:10.37,2013-01-08 12:09:00,
2013-01-08 06:14:00,5.7,3.4,29.19,North,0,1.1,0.0,90,0.00,CLR,,0.00,WeatherDisplay:10.37,2013-01-08 12:14:00,
2013-01-08 06:19:00,5.5,3.2,28.87,NW,315,1.1,0.0,90,0.00,CLR,,0.00,WeatherDisplay:10.37,2013-01-08 12:19:00,
2013-01-08 06:24:00,5.4,3.1,28.77,NW,315,1.1,0.0,90,0.00,CLR,,0.00,WeatherDisplay:10.37,2013-01-08 12:24:00,
2013-01-08 06:29:00,5.2,2.9,28.85,SW,225,0.0,0.0,90,0.00,CLR,,0.00,WeatherDisplay:10.37,2013-01-08 12:29:00,
2013-01-08 06:34:00,5.2,2.9,29.00,SW,225,1.1,0.0,90,0.00,CLR,,0.00,WeatherDisplay:10.37,2013-01-08 12:34:00,
2013-01-08 06:39:00,5.0,2.5,29.16,South,180,1.1,0.0,89,0.00,CLR,,0.00,WeatherDisplay:10.37,2013-01-08 12:39:00,
2013-01-08 06:44:00,5.0,2.5,29.44,North,0,1.1,0.0,89,0.00,CLR,,0.00,WeatherDisplay:10.37,2013-01-08 12:44:00,
2013-01-08 06:49:00,4.5,1.9,29.49,North,0,0.0,0.0,89,0.00,CLR,,0.00,WeatherDisplay:10.37,2013-01-08 12:49:00,
2013-01-08 06:54:00,4.5,1.9,29.23,NW,315,0.0,0.0,89,0.00,CLR,,0.00,WeatherDisplay:10.37,2013-01-08 12:54:00,
2013-01-08 06:59:00,4.3,1.8,28.97,North,0,1.1,1.1,89,0.00,CLR,,0.00,WeatherDisplay:10.37,2013-01-08 12:59:00,
2013-01-08 07:04:00,4.1,1.6,28.37,North,0,1.1,0.0,89,0.00,CLR,,0.00,WeatherDisplay:10.37,2013-01-08 13:04:00,
2013-01-08 07:09:00,3.9,1.4,27.59,NW,315,1.1,0.0,89,0.00,CLR,,0.00,WeatherDisplay:10.37,2013-01-08 13:09:00,
2013-01-08 07:14:00,4.1,1.6,26.90,NW,315,0.0,0.0,89,0.00,CLR,,0.00,WeatherDisplay:10.37,2013-01-08 13:14:00,
2013-01-08 07:19:00,4.1,1.6,26.23,NW,315,1.1,0.0,89,0.00,CLR,,0.00,WeatherDisplay:10.37,2013-01-08 13:19:00,
2013-01-08 07:24:00,4.3,1.8,25.79,NW,315,0.0,0.0,89,0.00,CLR,,0.00,WeatherDisplay:10.37,2013-01-08 13:24:00,
2013-01-08 07:29:00,4.3,1.8,25.66,NW,315,0.0,0.0,89,0.00,CLR,,0.00,WeatherDisplay:10.37,2013-01-08 13:29:00,
2013-01-08 07:34:00,4.3,1.8,25.73,NW,315,0.0,0.0,89,0.00,CLR,,0.00,WeatherDisplay:10.37,2013-01-08 13:34:00,
2013-01-08 07:39:00,4.5,1.9,25.87,NW,315,0.0,0.0,89,0.00,CLR,,0.00,WeatherDisplay:10.37,2013-01-08 13:39:00,
2013-01-08 07:44:00,4.5,1.9,26.12,NW,315,0.0,0.0,89,0.00,CLR,,0.00,WeatherDisplay:10.37,2013-01-08 13:44:00,
2013-01-08 07:49:00,4.5,1.9,26.42,North,0,1.1,0.0,89,0.00,CLR,,0.00,WeatherDisplay:10.37,2013-01-08 13:49:00,
2013-01-08 07:54:00,4.5,1.7,26.72,North,0,0.0,0.0,88,0.00,CLR,,0.00,WeatherDisplay:10.37,2013-01-08 13:54:00,
2013-01-08 07:59:00,4.6,2.1,27.00,North,0,0.0,0.0,89,0.00,CLR,,0.00,WeatherDisplay:10.37,2013-01-08 13:59:00,
2013-01-08 08:04:00,4.8,2.3,27.02,North,0,0.0,0.0,89,0.00,CLR,,0.00,WeatherDisplay:10.37,2013-01-08 14:04:00,
2013-01-08 08:09:00,5.2,2.4,26.78,North,0,0.0,0.0,88,0.00,CLR,,0.00,WeatherDisplay:10.37,2013-01-08 14:09:00,
2013-01-08 08:14:00,5.2,2.6,26.51,North,0,0.0,0.0,89,0.00,CLR,,0.00,WeatherDisplay:10.37,2013-01-08 14:14:00,
2013-01-08 08:19:00,5.5,3.0,25.94,North,0,1.1,0.0,89,0.00,CLR,,0.00,WeatherDisplay:10.37,2013-01-08 14:19:00,
2013-01-08 08:24:00,6.1,3.5,25.52,North,0,0.0,0.0,89,0.00,CLR,,0.00,WeatherDisplay:10.37,2013-01-08 14:24:00,
2013-01-08 08:29:00,6.8,4.2,25.37,North,0,0.0,0.0,89,0.00,CLR,,0.00,WeatherDisplay:10.37,2013-01-08 14:29:00,
2013-01-08 08:34:00,7.2,4.6,25.39,NW,315,1.1,0.0,89,0.00,CLR,,0.00,WeatherDisplay:10.37,2013-01-08 14:34:00,
2013-01-08 08:39:00,7.9,5.3,25.63,North,0,1.1,1.1,89,0.00,CLR,,0.00,WeatherDisplay:10.37,2013-01-08 14:39:00,
2013-01-08 08:44:00,9.0,6.4,25.86,North,0,1.1,1.1,89,0.00,CLR,,0.00,WeatherDisplay:10.37,2013-01-08 14:44:00,
2013-01-08 08:49:00,10.2,7.6,26.22,North,0,1.1,1.1,89,0.00,CLR,,0.00,WeatherDisplay:10.37,2013-01-08 14:49:00,
2013-01-08 08:54:00,11.1,8.5,26.51,North,0,1.1,0.0,89,0.00,CLR,,0.00,WeatherDisplay:10.37,2013-01-08 14:54:00,
2013-01-08 08:59:00,12.7,10.4,26.84,North,0,1.1,0.0,90,0.00,CLR,,0.00,WeatherDisplay:10.37,2013-01-08 14:59:00,
2013-01-08 09:04:00,14.2,11.8,27.19,North,0,0.0,0.0,90,0.00,CLR,,0.00,WeatherDisplay:10.37,2013-01-08 15:04:00,
2013-01-08 09:09:00,15.1,12.7,27.57,North,0,0.0,0.0,90,0.00,CLR,,0.00,WeatherDisplay:10.37,2013-01-08 15:09:00,
2013-01-08 09:14:00,15.3,12.9,27.92,North,0,1.6,0.0,90,0.00,CLR,,0.00,WeatherDisplay:10.37,2013-01-08 15:14:00,
2013-01-08 09:19:00,15.4,12.8,28.11,NW,315,1.1,0.0,89,0.00,CLR,,0.00,WeatherDisplay:10.37,2013-01-08 15:19:00,
2013-01-08 09:24:00,16.0,13.3,28.04,North,0,1.1,0.0,89,0.00,CLR,,0.00,WeatherDisplay:10.37,2013-01-08 15:24:00,
2013-01-08 09:29:00,16.7,14.3,27.76,NW,315,1.1,1.1,90,0.00,CLR,,0.00,WeatherDisplay:10.37,2013-01-08 15:29:00,
2013-01-08 09:34:00,19.4,16.9,27.22,North,0,1.6,1.6,90,0.00,CLR,,0.00,WeatherDisplay:10.37,2013-01-08 15:34:00,
2013-01-08 09:39:00,22.3,19.3,26.76,North,0,1.1,1.1,88,0.00,CLR,,0.00,WeatherDisplay:10.37,2013-01-08 15:39:00,
2013-01-08 09:44:00,23.7,19.9,26.39,North,0,2.3,2.3,85,0.00,CLR,,0.00,WeatherDisplay:10.37,2013-01-08 15:44:00,
2013-01-08 09:49:00,24.6,20.5,26.24,North,0,2.3,2.3,84,0.00,CLR,,0.00,WeatherDisplay:10.37,2013-01-08 15:49:00,
2013-01-08 09:54:00,25.3,20.3,26.30,North,0,2.3,2.3,81,0.00,CLR,,0.00,WeatherDisplay:10.37,2013-01-08 15:54:00,
2013-01-08 09:59:00,25.5,20.2,26.41,North,0,1.1,1.1,80,0.00,CLR,,0.00,WeatherDisplay:10.37,2013-01-08 15:59:00,
2013-01-08 10:04:00,25.7,20.1,26.61,NW,315,1.1,0.0,79,0.00,CLR,,0.00,WeatherDisplay:10.37,2013-01-08 16:04:00,
2013-01-08 10:09:00,27.7,22.6,26.78,North,0,1.1,0.0,81,0.00,CLR,,0.00,WeatherDisplay:10.37,2013-01-08 16:09:00,
2013-01-08 10:14:00,31.6,24.3,27.06,North,0,2.3,2.3,74,0.00,CLR,,0.00,WeatherDisplay:10.37,2013-01-08 16:14:00,
2013-01-08 10:19:00,33.1,24.4,27.34,East,90,2.3,0.0,70,0.00,CLR,,0.00,WeatherDisplay:10.37,2013-01-08 16:19:00,
2013-01-08 10:24:00,35.4,25.5,27.65,East,90,1.1,0.0,67,0.00,CLR,,0.00,WeatherDisplay:10.37,2013-01-08 16:24:00,
2013-01-08 10:29:00,36.0,23.8,27.88,SE,135,4.6,4.6,61,0.00,CLR,,0.00,WeatherDisplay:10.37,2013-01-08 16:29:00,
2013-01-08 10:34:00,32.2,21.7,28.19,SSE,158,5.8,5.8,65,0.00,CLR,,0.00,WeatherDisplay:10.37,2013-01-08 16:34:00,
2013-01-08 10:39:00,30.2,21.9,28.46,SE,135,4.6,4.6,71,0.00,CLR,,0.00,WeatherDisplay:10.37,2013-01-08 16:39:00,
2013-01-08 10:44:00,29.1,21.5,28.79,SE,135,5.8,5.8,73,0.00,CLR,,0.00,WeatherDisplay:10.37,2013-01-08 16:44:00,
2013-01-08 10:49:00,29.1,21.9,29.00,SE,135,5.8,5.8,74,0.00,CLR,,0.00,WeatherDisplay:10.37,2013-01-08 16:49:00,
2013-01-08 10:54:00,29.8,22.6,29.33,SE,135,5.8,5.8,74,0.00,CLR,,0.00,WeatherDisplay:10.37,2013-01-08 16:54:00,
2013-01-08 10:59:00,30.9,23.3,29.31,East,90,3.5,3.5,73,0.00,CLR,,0.00,WeatherDisplay:10.37,2013-01-08 16:59:00,
2013-01-08 11:04:00,31.8,24.1,29.02,North,0,1.1,0.0,73,0.00,CLR,,0.00,WeatherDisplay:10.37,2013-01-08 17:04:00,
2013-01-08 11:09:00,32.7,24.0,28.54,NE,45,2.3,2.3,70,0.00,CLR,,0.00,WeatherDisplay:10.37,2013-01-08 17:09:00,
2013-01-08 11:14:00,33.1,24.0,27.86,NE,45,2.3,0.0,69,0.00,CLR,,0.00,WeatherDisplay:10.37,2013-01-08 17:14:00,
2013-01-08 11:19:00,33.3,24.2,27.33,SW,225,2.3,2.3,69,0.00,CLR,,0.00,WeatherDisplay:10.37,2013-01-08 17:19:00,
2013-01-08 11:24:00,32.2,23.8,26.95,South,180,3.5,3.5,71,0.00,CLR,,0.00,WeatherDisplay:10.37,2013-01-08 17:24:00,
2013-01-08 11:29:00,31.5,23.8,26.76,East,90,3.5,3.5,73,0.00,CLR,,0.00,WeatherDisplay:10.37,2013-01-08 17:29:00,
2013-01-08 11:34:00,30.4,24.0,26.69,SE,135,5.8,5.8,77,0.00,CLR,,0.00,WeatherDisplay:10.37,2013-01-08 17:34:00,
2013-01-08 11:39:00,29.8,23.8,26.75,South,180,6.9,6.9,78,0.00,CLR,,0.00,WeatherDisplay:10.37,2013-01-08 17:39:00,
2013-01-08 11:44:00,30.0,24.3,26.82,South,180,4.6,4.6,79,0.00,CLR,,0.00,WeatherDisplay:10.37,2013-01-08 17:44:00,
2013-01-08 11:49:00,30.4,24.6,26.91,SE,135,3.5,3.5,79,0.00,CLR,,0.00,WeatherDisplay:10.37,2013-01-08 17:49:00,
2013-01-08 11:54:00,30.4,24.6,27.01,South,180,8.1,8.1,79,0.00,CLR,,0.00,WeatherDisplay:10.37,2013-01-08 17:54:00,
2013-01-08 11:59:00,30.4,24.6,27.20,South,180,9.2,9.2,79,0.00,CLR,,0.00,WeatherDisplay:10.37,2013-01-08 17:59:00,
2013-01-08 12:04:00,30.4,24.9,27.35,SE,135,6.0,6.0,80,0.00,CLR,,0.00,WeatherDisplay:10.37,2013-01-08 18:04:00,
2013-01-08 12:09:00,30.6,24.8,27.51,SE,135,5.8,5.8,79,0.00,CLR,,0.00,WeatherDisplay:10.37,2013-01-08 18:09:00,
2013-01-08 12:14:00,30.7,25.0,27.68,South,180,5.8,5.8,79,0.00,CLR,,0.00,WeatherDisplay:10.37,2013-01-08 18:14:00,
2013-01-08 12:19:00,30.7,25.0,27.93,SSE,158,6.9,6.9,79,0.00,CLR,,0.00,WeatherDisplay:10.37,2013-01-08 18:19:00,
2013-01-08 12:24:00,31.1,25.3,28.18,SE,135,4.6,4.6,79,0.00,CLR,,0.00,WeatherDisplay:10.37,2013-01-08 18:24:00,
2013-01-08 12:29:00,31.6,25.6,28.39,SE,135,3.5,3.5,78,0.00,CLR,,0.00,WeatherDisplay:10.37,2013-01-08 18:29:00,
2013-01-08 12:34:00,32.0,25.6,28.64,SE,135,3.8,3.8,77,0.00,CLR,,0.00,WeatherDisplay:10.37,2013-01-08 18:34:00,
2013-01-08 12:39:00,32.2,25.8,28.84,SE,135,3.5,3.5,77,0.00,CLR,,0.00,WeatherDisplay:10.37,2013-01-08 18:39:00,
2013-01-08 12:44:00,32.5,26.1,29.06,East,90,3.8,3.8,77,0.00,CLR,,0.00,WeatherDisplay:10.37,2013-01-08 18:44:00,
2013-01-08 12:49:00,32.9,26.2,29.19,SE,135,3.5,3.5,76,0.00,CLR,,0.00,WeatherDisplay:10.37,2013-01-08 18:49:00,
2013-01-08 12:54:00,33.6,26.5,29.40,SE,135,4.5,4.5,75,0.00,CLR,,0.00,WeatherDisplay:10.37,2013-01-08 18:54:00,
2013-01-08 12:59:00,34.2,26.7,29.65,SE,135,3.5,3.5,74,0.00,CLR,,0.00,WeatherDisplay:10.37,2013-01-08 18:59:00,
2013-01-08 13:04:00,34.5,26.8,29.84,SE,135,6.0,6.0,73,0.00,CLR,,0.00,WeatherDisplay:10.37,2013-01-08 19:04:00,
2013-01-08 13:09:00,35.4,27.6,29.72,SE,135,3.5,3.5,73,0.00,CLR,,0.00,WeatherDisplay:10.37,2013-01-08 19:09:00,
2013-01-08 13:14:00,36.3,27.8,29.34,SE,135,4.5,4.5,71,0.00,CLR,,0.00,WeatherDisplay:10.37,2013-01-08 19:14:00,
2013-01-08 13:19:00,36.9,27.6,28.76,SE,135,8.1,8.1,69,0.00,CLR,,0.00,WeatherDisplay:10.37,2013-01-08 19:19:00,
2013-01-08 13:24:00,37.8,28.5,28.03,SE,135,6.9,6.9,69,0.00,CLR,,0.00,WeatherDisplay:10.37,2013-01-08 19:24:00,
2013-01-08 13:29:00,37.8,28.1,27.70,South,180,10.4,10.4,68,0.00,CLR,,0.00,WeatherDisplay:10.37,2013-01-08 19:29:00,
2013-01-08 13:34:00,37.9,28.3,27.47,SE,135,8.1,8.1,68,0.00,CLR,,0.00,WeatherDisplay:10.37,2013-01-08 19:34:00,
2013-01-08 13:39:00,37.9,28.3,27.38,SE,135,10.4,10.4,68,0.00,CLR,,0.00,WeatherDisplay:10.37,2013-01-08 19:39:00,
2013-01-08 13:44:00,37.6,28.0,27.42,South,180,12.1,12.1,68,0.00,CLR,,0.00,WeatherDisplay:10.37,2013-01-08 19:44:00,
2013-01-08 13:49:00,37.6,28.0,27.47,South,180,9.2,9.2,68,0.00,CLR,,0.00,WeatherDisplay:10.37,2013-01-08 19:49:00,
2013-01-08 13:54:00,38.1,28.1,27.58,SE,135,10.4,10.4,67,0.00,CLR,,0.00,WeatherDisplay:10.37,2013-01-08 19:54:00,
2013-01-08 13:59:00,38.3,28.3,27.68,South,180,8.1,8.1,67,0.00,CLR,,0.00,WeatherDisplay:10.37,2013-01-08 19:59:00,
2013-01-08 14:04:00,39.0,28.2,27.88,SE,135,9.2,9.2,65,0.00,CLR,,0.00,WeatherDisplay:10.37,2013-01-08 20:04:00,
2013-01-08 14:09:00,39.2,28.4,28.00,South,180,10.4,10.4,65,0.00,CLR,,0.00,WeatherDisplay:10.37,2013-01-08 20:09:00,
2013-01-08 14:14:00,39.6,28.4,28.27,South,180,9.2,9.2,64,0.00,CLR,,0.00,WeatherDisplay:10.37,2013-01-08 20:14:00,
2013-01-08 14:19:00,39.2,28.0,28.48,South,180,9.2,9.2,64,0.00,CLR,,0.00,WeatherDisplay:10.37,2013-01-08 20:19:00,
2013-01-08 14:24:00,38.7,27.9,28.70,SE,135,12.7,12.7,65,0.00,CLR,,0.00,WeatherDisplay:10.37,2013-01-08 20:24:00,
2013-01-08 14:29:00,38.7,27.9,28.87,South,180,12.7,12.7,65,0.00,CLR,,0.00,WeatherDisplay:10.37,2013-01-08 20:29:00,
2013-01-08 14:34:00,38.3,27.6,29.10,SE,135,13.8,13.8,65,0.00,CLR,,0.00,WeatherDisplay:10.37,2013-01-08 20:34:00,
2013-01-08 14:39:00,37.8,27.4,29.27,SE,135,11.5,11.5,66,0.00,CLR,,0.00,WeatherDisplay:10.37,2013-01-08 20:39:00,
2013-01-08 14:44:00,37.8,27.4,29.51,South,180,13.8,13.8,66,0.00,CLR,,0.00,WeatherDisplay:10.37,2013-01-08 20:44:00,
2013-01-08 14:49:00,37.4,27.4,29.67,SE,135,6.9,6.9,67,0.00,CLR,,0.00,WeatherDisplay:10.37,2013-01-08 20:49:00,
2013-01-08 14:54:00,37.2,27.6,29.96,SE,135,12.1,12.1,68,0.00,CLR,,0.00,WeatherDisplay:10.37,2013-01-08 20:54:00,
2013-01-08 14:59:00,37.2,27.6,30.21,South,180,11.5,11.5,68,0.00,CLR,,0.00,WeatherDisplay:10.37,2013-01-08 20:59:00,
2013-01-08 15:04:00,37.2,27.6,30.44,South,180,10.4,10.4,68,0.00,CLR,,0.00,WeatherDisplay:10.37,2013-01-08 21:04:00,
2013-01-08 15:09:00,37.4,27.4,30.61,SSE,158,10.4,10.4,67,0.00,CLR,,0.00,WeatherDisplay:10.37,2013-01-08 21:09:00,
2013-01-08 15:14:00,37.8,27.4,30.86,SE,135,11.5,11.5,66,0.00,CLR,,0.00,WeatherDisplay:10.37,2013-01-08 21:14:00,
2013-01-08 15:19:00,38.1,27.8,31.03,SE,135,10.4,10.4,66,0.00,CLR,,0.00,WeatherDisplay:10.37,2013-01-08 21:19:00,
2013-01-08 15:24:00,37.6,27.6,30.87,SE,135,9.2,9.2,67,0.00,CLR,,0.00,WeatherDisplay:10.37,2013-01-08 21:24:00,
2013-01-08 15:29:00,37.6,27.6,30.57,SE,135,13.8,13.8,67,0.00,CLR,,0.00,WeatherDisplay:10.37,2013-01-08 21:29:00,
2013-01-08 15:34:00,37.6,27.6,29.96,SE,135,10.4,10.4,67,0.00,CLR,,0.00,WeatherDisplay:10.37,2013-01-08 21:34:00,
2013-01-08 15:39:00,37.2,27.3,29.35,SSE,158,10.4,10.4,67,0.00,CLR,,0.00,WeatherDisplay:10.37,2013-01-08 21:39:00,
2013-01-08 15:44:00,36.7,27.1,28.78,South,180,13.8,13.8,68,0.00,CLR,,0.00,WeatherDisplay:10.37,2013-01-08 21:44:00,
2013-01-08 15:49:00,36.5,27.3,28.59,SW,225,8.1,8.1,69,0.00,CLR,,0.00,WeatherDisplay:10.37,2013-01-08 21:49:00,
2013-01-08 15:54:00,36.3,27.1,28.47,SE,135,8.1,8.1,69,0.00,CLR,,0.00,WeatherDisplay:10.37,2013-01-08 21:54:00,
2013-01-08 15:59:00,36.3,27.1,28.48,SSE,158,9.2,9.2,69,0.00,CLR,,0.00,WeatherDisplay:10.37,2013-01-08 21:59:00,
2013-01-08 16:04:00,36.3,27.1,28.59,SE,135,8.1,8.1,69,0.00,CLR,,0.00,WeatherDisplay:10.37,2013-01-08 22:04:00,
2013-01-08 16:09:00,36.1,27.3,28.73,SE,135,9.2,9.2,70,0.00,CLR,,0.00,WeatherDisplay:10.37,2013-01-08 22:09:00,
2013-01-08 20:50:00,33.6,28.7,26.41,South,180,2.3,2.3,82,0.00,CLR,,0.00,WeatherDisplay:10.37,2013-01-09 02:50:00,
2013-01-08 20:55:00,34.0,29.1,26.66,South,180,3.5,3.5,82,0.00,CLR,,0.00,WeatherDisplay:10.37,2013-01-09 02:55:00,
2013-01-08 21:00:00,34.2,29.5,26.88,West,270,5.8,5.8,83,0.00,CLR,,0.00,WeatherDisplay:10.37,2013-01-09 03:00:00,
2013-01-08 21:05:00,35.2,30.3,27.09,SW,225,15.0,15.0,82,0.00,CLR,,0.00,WeatherDisplay:10.37,2013-01-09 03:05:00,
2013-01-08 21:10:00,35.4,30.5,27.31,SW,225,8.1,8.1,82,0.00,CLR,,0.00,WeatherDisplay:10.37,2013-01-09 03:10:00,
2013-01-08 21:15:00,35.6,30.3,27.52,SW,225,6.9,6.9,81,0.00,CLR,,0.00,WeatherDisplay:10.37,2013-01-09 03:15:00,
2013-01-08 21:20:00,35.6,30.3,27.77,South,180,5.8,5.8,81,0.00,CLR,,0.00,WeatherDisplay:10.37,2013-01-09 03:20:00,
2013-01-08 21:25:00,35.4,30.2,28.03,West,270,9.2,9.2,81,0.00,CLR,,0.00,WeatherDisplay:10.37,2013-01-09 03:25:00,
2013-01-08 21:30:00,35.4,30.5,28.25,SW,225,9.2,9.2,82,0.00,CLR,,0.00,WeatherDisplay:10.37,2013-01-09 03:30:00,
2013-01-08 21:35:00,35.4,30.5,28.41,SW,225,6.9,6.9,82,0.00,CLR,,0.00,WeatherDisplay:10.37,2013-01-09 03:35:00,
2013-01-08 21:40:00,35.2,30.3,28.22,SW,225,9.2,9.2,82,0.00,CLR,,0.00,WeatherDisplay:10.37,2013-01-09 03:40:00,
2013-01-08 21:45:00,35.1,30.1,27.73,West,270,4.6,4.6,82,0.00,CLR,,0.00,WeatherDisplay:10.37,2013-01-09 03:45:00,
2013-01-08 21:50:00,35.1,30.1,27.19,SW,225,9.2,9.2,82,0.00,CLR,,0.00,WeatherDisplay:10.37,2013-01-09 03:50:00,
2013-01-08 21:55:00,35.1,30.1,26.86,SW,225,9.8,9.8,82,0.00,CLR,,0.00,WeatherDisplay:10.37,2013-01-09 03:55:00,
2013-01-08 22:00:00,35.1,30.1,26.73,South,180,8.1,8.1,82,0.00,CLR,,0.00,WeatherDisplay:10.37,2013-01-09 04:00:00,
2013-01-08 22:05:00,35.1,30.1,26.70,South,180,8.1,8.1,82,0.00,CLR,,0.00,WeatherDisplay:10.37,2013-01-09 04:05:00,
2013-01-08 22:10:00,34.9,29.9,26.77,NW,315,10.4,10.4,82,0.00,CLR,,0.00,WeatherDisplay:10.37,2013-01-09 04:10:00,
2013-01-08 22:15:00,34.7,29.8,26.93,SW,225,8.1,8.1,82,0.00,CLR,,0.00,WeatherDisplay:10.37,2013-01-09 04:15:00,
2013-01-08 22:20:00,34.7,29.8,27.06,SW,225,8.1,8.1,82,0.00,CLR,,0.00,WeatherDisplay:10.37,2013-01-09 04:20:00,
2013-01-08 22:25:00,34.5,29.6,27.27,SW,225,6.9,6.9,82,0.00,CLR,,0.00,WeatherDisplay:10.37,2013-01-09 04:25:00,
2013-01-08 22:30:00,34.5,29.6,27.44,NW,315,4.6,4.6,82,0.00,CLR,,0.00,WeatherDisplay:10.37,2013-01-09 04:30:00,
2013-01-08 22:35:00,34.3,29.4,27.72,NW,315,9.2,9.2,82,0.00,CLR,,0.00,WeatherDisplay:10.37,2013-01-09 04:35:00,
2013-01-08 22:40:00,34.2,29.2,27.88,West,270,12.7,12.7,82,0.00,CLR,,0.00,WeatherDisplay:10.37,2013-01-09 04:40:00,
2013-01-08 22:45:00,34.2,28.9,28.13,NW,315,8.1,8.1,81,0.00,CLR,,0.00,WeatherDisplay:10.37,2013-01-09 04:45:00,
2013-01-08 22:50:00,34.0,28.8,28.41,South,180,6.9,6.9,81,0.00,CLR,,0.00,WeatherDisplay:10.37,2013-01-09 04:50:00,
2013-01-08 22:55:00,33.6,28.4,28.69,NW,315,8.1,8.1,81,0.00,CLR,,0.00,WeatherDisplay:10.37,2013-01-09 04:55:00,
2013-01-08 23:00:00,33.6,28.4,28.84,West,270,6.9,6.9,81,0.00,CLR,,0.00,WeatherDisplay:10.37,2013-01-09 05:00:00,
2013-01-08 23:03:00,33.6,28.4,28.98,West,270,5.8,5.8,81,0.00,CLR,,0.00,WeatherDisplay:10.37,2013-01-09 05:03:00,
2013-01-08 23:08:00,33.4,28.2,29.30,West,270,10.4,10.4,81,0.00,CLR,,0.00,WeatherDisplay:10.37,2013-01-09 05:08:00,
2013-01-08 23:13:00,33.3,28.1,29.48,South,180,8.1,8.1,81,0.00,CLR,,0.00,WeatherDisplay:10.37,2013-01-09 05:13:00,
2013-01-08 23:18:00,33.1,27.9,29.70,West,270,8.1,8.1,81,0.00,CLR,,0.00,WeatherDisplay:10.37,2013-01-09 05:18:00,
2013-01-08 23:23:00,32.9,28.0,29.91,SW,225,4.6,4.6,82,0.00,CLR,,0.00,WeatherDisplay:10.37,2013-01-09 05:23:00,
2013-01-08 23:28:00,32.7,27.5,30.13,West,270,8.1,8.1,81,0.00,CLR,,0.00,WeatherDisplay:10.37,2013-01-09 05:28:00,
2013-01-08 23:33:00,32.5,27.7,30.30,South,180,4.6,4.6,82,0.00,CLR,,0.00,WeatherDisplay:10.37,2013-01-09 05:33:00,
2013-01-08 23:38:00,32.5,27.7,30.52,SW,225,6.9,6.9,82,0.00,CLR,,0.00,WeatherDisplay:10.37,2013-01-09 05:38:00,
2013-01-08 23:43:00,32.4,27.5,30.71,West,270,8.1,8.1,82,0.00,CLR,,0.00,WeatherDisplay:10.37,2013-01-09 05:43:00,
2013-01-08 23:48:00,32.2,27.3,30.92,SW,225,10.4,10.4,82,0.00,CLR,,0.00,WeatherDisplay:10.37,2013-01-09 05:48:00,
2013-01-08 23:53:00,32.2,27.3,31.12,NW,315,5.8,5.8,82,0.00,CLR,,0.00,WeatherDisplay:10.37,2013-01-09 05:53:00,
2013-01-08 23:58:00,32.0,27.1,31.29,NW,315,6.9,6.9,82,0.00,CLR,,0.00,WeatherDisplay:10.37,2013-01-09 05:58:00,